createdAt,value
2018-03-28T00:00:46.285Z,5.30
2018-03-28T00:03:13.834Z,5.30
2018-03-28T00:05:41.513Z,5.20
2018-03-28T00:08:09.068Z,5.20
2018-03-28T00:10:36.650Z,5.20
2018-03-28T00:13:04.209Z,5.20
2018-03-28T00:15:31.786Z,5.20
2018-03-28T00:18:00.119Z,5.20
2018-03-28T00:20:27.690Z,5.10
2018-03-28T00:22:55.267Z,5.10
2018-03-28T00:25:22.824Z,5.20
2018-03-28T00:27:50.381Z,5.20
2018-03-28T00:30:17.945Z,5.10
2018-03-28T00:32:45.720Z,5.20
2018-03-28T00:35:13.306Z,5.10
2018-03-28T00:37:40.867Z,5.00
2018-03-28T00:40:08.454Z,5.00
2018-03-28T00:42:36.026Z,5.00
2018-03-28T00:45:03.596Z,5.10
2018-03-28T00:47:31.146Z,5.10
2018-03-28T00:49:58.707Z,5.00
2018-03-28T00:52:26.299Z,5.00
2018-03-28T00:54:53.890Z,5.00
2018-03-28T00:57:21.443Z,5.00
2018-03-28T00:59:49.002Z,4.90
2018-03-28T01:02:17.325Z,4.90
2018-03-28T01:04:44.928Z,4.90
2018-03-28T01:07:12.504Z,4.90
2018-03-28T01:09:40.073Z,4.90
2018-03-28T01:12:07.631Z,4.90
2018-03-28T01:14:35.185Z,4.90
2018-03-28T01:17:02.773Z,4.80
2018-03-28T01:19:30.542Z,4.80
2018-03-28T01:21:58.111Z,4.80
2018-03-28T01:24:25.664Z,4.80
2018-03-28T01:26:53.226Z,4.80
2018-03-28T01:29:20.842Z,4.90
2018-03-28T01:31:48.405Z,4.90
2018-03-28T01:34:15.967Z,4.80
2018-03-28T01:36:43.525Z,4.80
2018-03-28T01:39:11.083Z,4.80
2018-03-28T01:41:39.429Z,4.70
2018-03-28T01:44:06.989Z,4.70
2018-03-28T01:46:34.550Z,4.70
2018-03-28T01:49:02.102Z,4.60
2018-03-28T01:51:29.670Z,4.60
2018-03-28T01:53:58.497Z,4.60
2018-03-28T01:56:26.077Z,4.60
2018-03-28T01:58:53.643Z,4.60
2018-03-28T02:01:21.203Z,4.60
2018-03-28T02:03:48.756Z,4.50
2018-03-28T02:06:16.439Z,4.50
2018-03-28T02:08:43.990Z,4.50
2018-03-28T02:11:11.591Z,4.50
2018-03-28T02:13:39.199Z,4.50
2018-03-28T02:16:06.758Z,4.50
2018-03-28T02:18:34.951Z,4.50
2018-03-28T02:21:02.514Z,4.50
2018-03-28T02:23:30.084Z,4.50
2018-03-28T02:25:57.636Z,4.50
2018-03-28T02:28:25.196Z,4.40
2018-03-28T02:30:52.756Z,4.40
2018-03-28T02:33:20.322Z,4.40
2018-03-28T02:35:47.894Z,4.40
2018-03-28T02:38:15.459Z,4.40
2018-03-28T02:40:43.077Z,4.30
2018-03-28T02:43:10.626Z,4.40
2018-03-28T02:45:38.186Z,4.30
2018-03-28T02:48:05.752Z,4.30
2018-03-28T02:50:33.324Z,4.30
2018-03-28T02:53:00.919Z,4.30
2018-03-28T02:55:29.242Z,4.30
2018-03-28T02:57:56.807Z,4.20
2018-03-28T03:00:24.362Z,4.20
2018-03-28T03:02:51.941Z,4.30
2018-03-28T03:05:19.520Z,4.20
2018-03-28T03:07:47.143Z,4.20
2018-03-28T03:10:14.719Z,4.20
2018-03-28T03:12:42.350Z,4.20
2018-03-28T03:15:09.912Z,4.20
2018-03-28T03:17:37.499Z,4.20
2018-03-28T03:20:05.059Z,4.10
2018-03-28T03:22:32.629Z,4.10
2018-03-28T03:25:00.385Z,4.10
2018-03-28T03:27:28.024Z,4.10
2018-03-28T03:29:55.680Z,4.20
2018-03-28T03:32:23.269Z,4.10
2018-03-28T03:34:50.838Z,4.10
2018-03-28T03:37:18.393Z,4.10
2018-03-28T03:39:46.030Z,4.10
2018-03-28T03:42:13.608Z,4.10
2018-03-28T03:44:41.196Z,4.00
2018-03-28T03:47:08.786Z,4.00
2018-03-28T03:49:36.342Z,4.00
2018-03-28T03:52:03.914Z,4.00
2018-03-28T03:54:31.501Z,4.00
2018-03-28T03:56:59.067Z,3.90
2018-03-28T03:59:26.623Z,3.90
2018-03-28T04:01:54.183Z,3.90
2018-03-28T04:04:21.762Z,3.90
2018-03-28T04:06:49.358Z,4.00
2018-03-28T04:09:16.910Z,3.90
2018-03-28T04:11:44.480Z,3.90
2018-03-28T04:14:12.033Z,3.90
2018-03-28T04:16:40.227Z,3.90
2018-03-28T04:19:07.815Z,3.80
2018-03-28T04:21:35.374Z,3.90
2018-03-28T04:24:02.935Z,3.90
2018-03-28T04:26:30.507Z,3.80
2018-03-28T04:28:58.846Z,3.80
2018-03-28T04:31:26.434Z,3.80
2018-03-28T04:33:53.992Z,3.80
2018-03-28T04:36:21.549Z,3.80
2018-03-28T04:38:49.125Z,3.80
2018-03-28T04:41:16.694Z,3.80
2018-03-28T04:43:44.316Z,3.80
2018-03-28T04:46:11.887Z,3.90
2018-03-28T04:48:39.456Z,3.80
2018-03-28T04:51:07.025Z,3.80
2018-03-28T04:53:34.586Z,3.70
2018-03-28T04:56:02.186Z,3.70
2018-03-28T04:58:29.779Z,3.70
2018-03-28T05:00:57.334Z,3.70
2018-03-28T05:03:24.903Z,3.70
2018-03-28T05:05:52.459Z,3.70
2018-03-28T05:08:20.057Z,3.70
2018-03-28T05:10:47.614Z,3.60
2018-03-28T05:13:15.173Z,3.60
2018-03-28T05:15:43.578Z,3.60
2018-03-28T05:18:11.083Z,3.60
2018-03-28T05:20:39.446Z,3.60
2018-03-28T05:23:07.014Z,3.60
2018-03-28T05:25:34.578Z,3.60
2018-03-28T05:28:02.138Z,3.70
2018-03-28T05:30:29.719Z,3.70
2018-03-28T05:32:57.300Z,3.70
2018-03-28T05:35:24.870Z,3.80
2018-03-28T05:37:52.430Z,3.70
2018-03-28T05:40:19.992Z,3.80
2018-03-28T05:42:47.567Z,3.70
2018-03-28T05:45:15.158Z,3.70
2018-03-28T05:47:42.726Z,3.70
2018-03-28T05:50:10.311Z,3.70
2018-03-28T05:52:37.905Z,3.70
2018-03-28T05:55:05.482Z,3.70
2018-03-28T05:57:33.071Z,3.60
2018-03-28T06:00:01.391Z,3.70
2018-03-28T06:02:28.966Z,3.70
2018-03-28T06:04:56.523Z,3.60
2018-03-28T06:07:24.207Z,3.60
2018-03-28T06:09:51.750Z,3.70
2018-03-28T06:12:19.299Z,3.70
2018-03-28T06:14:46.861Z,3.70
2018-03-28T06:17:14.413Z,3.80
2018-03-28T06:19:42.001Z,3.80
2018-03-28T06:22:09.562Z,3.90
2018-03-28T06:24:37.122Z,3.90
2018-03-28T06:27:04.695Z,3.90
2018-03-28T06:29:33.020Z,4.00
2018-03-28T06:32:00.598Z,4.00
2018-03-28T06:34:28.156Z,4.00
2018-03-28T06:36:55.711Z,4.00
2018-03-28T06:39:23.262Z,4.00
2018-03-28T06:41:50.822Z,4.00
2018-03-28T06:44:18.397Z,4.10
2018-03-28T06:46:45.942Z,4.10
2018-03-28T06:49:13.494Z,4.10
2018-03-28T06:51:41.047Z,4.20
2018-03-28T06:54:08.601Z,4.20
2018-03-28T06:56:36.187Z,4.30
2018-03-28T06:59:03.774Z,4.30
2018-03-28T07:01:31.334Z,4.30
2018-03-28T07:03:58.902Z,4.40
2018-03-28T07:06:26.453Z,4.30
2018-03-28T07:08:54.039Z,4.40
2018-03-28T07:11:21.594Z,4.50
2018-03-28T07:13:49.145Z,4.50
2018-03-28T07:16:17.466Z,4.70
2018-03-28T07:18:45.013Z,4.70
2018-03-28T07:21:12.592Z,4.40
2018-03-28T07:23:40.140Z,4.50
2018-03-28T07:26:07.689Z,4.70
2018-03-28T07:28:35.258Z,4.70
2018-03-28T07:31:02.814Z,4.70
2018-03-28T07:33:30.425Z,4.50
2018-03-28T07:35:57.973Z,4.50
2018-03-28T07:38:25.536Z,4.50
2018-03-28T07:40:53.085Z,4.50
2018-03-28T07:43:21.418Z,3.90
2018-03-28T07:45:49.098Z,3.90
2018-03-28T07:48:16.652Z,3.60
2018-03-28T07:50:44.198Z,3.30
2018-03-28T07:53:11.753Z,3.40
2018-03-28T07:55:39.318Z,3.60
2018-03-28T07:58:06.900Z,3.70
2018-03-28T08:00:34.461Z,3.70
2018-03-28T08:03:02.010Z,3.30
2018-03-28T08:05:29.564Z,3.00
2018-03-28T08:07:57.117Z,3.00
2018-03-28T08:10:24.697Z,3.00
2018-03-28T08:12:52.245Z,2.90
2018-03-28T08:15:19.799Z,3.00
2018-03-28T08:17:47.351Z,2.90
2018-03-28T08:20:14.918Z,2.80
2018-03-28T08:22:42.702Z,2.90
2018-03-28T08:25:10.266Z,2.90
2018-03-28T08:27:37.834Z,3.00
2018-03-28T08:30:05.391Z,3.00
2018-03-28T08:32:33.717Z,3.00
2018-03-28T08:35:01.301Z,2.90
2018-03-28T08:37:28.847Z,3.10
2018-03-28T08:39:56.397Z,3.20
2018-03-28T08:42:23.969Z,3.20
2018-03-28T08:44:51.525Z,3.10
2018-03-28T08:47:19.106Z,3.10
2018-03-28T08:49:46.659Z,3.10
2018-03-28T08:52:14.254Z,3.00
2018-03-28T08:54:41.806Z,3.00
2018-03-28T08:57:09.371Z,3.10
2018-03-28T08:59:36.921Z,3.10
2018-03-28T09:02:04.517Z,3.00
2018-03-28T09:04:32.069Z,3.10
2018-03-28T09:06:59.656Z,3.10
2018-03-28T09:09:27.209Z,2.90
2018-03-28T09:11:54.761Z,2.80
2018-03-28T09:14:22.317Z,2.90
2018-03-28T09:16:49.882Z,2.90
2018-03-28T09:19:17.442Z,3.00
2018-03-28T09:21:44.998Z,2.70
2018-03-28T09:24:12.555Z,2.40
2018-03-28T09:26:40.122Z,2.30
2018-03-28T09:29:07.710Z,2.70
2018-03-28T09:31:35.275Z,2.60
2018-03-28T09:34:02.826Z,2.30
2018-03-28T09:36:30.369Z,2.50
2018-03-28T09:38:57.937Z,2.50
2018-03-28T09:41:26.458Z,2.40
2018-03-28T09:43:54.017Z,2.40
2018-03-28T09:46:21.582Z,2.50
2018-03-28T09:48:49.135Z,2.40
2018-03-28T09:51:17.476Z,2.50
2018-03-28T09:53:45.105Z,2.50
2018-03-28T09:56:13.417Z,2.70
2018-03-28T09:58:40.965Z,2.60
2018-03-28T10:01:08.525Z,2.70
2018-03-28T10:03:41.641Z,2.60
2018-03-28T10:06:09.225Z,2.80
2018-03-28T10:08:37.561Z,3.00
2018-03-28T10:11:05.126Z,3.00
2018-03-28T10:13:32.682Z,3.10
2018-03-28T10:16:00.229Z,3.10
2018-03-28T10:18:27.802Z,3.30
2018-03-28T10:20:55.359Z,3.30
2018-03-28T10:23:22.914Z,3.40
2018-03-28T10:25:50.470Z,3.50
2018-03-28T10:28:18.015Z,3.40
2018-03-28T10:30:45.594Z,3.50
2018-03-28T10:33:13.242Z,3.60
2018-03-28T10:35:40.796Z,3.60
2018-03-28T10:38:08.351Z,3.70
2018-03-28T10:40:35.942Z,3.80
2018-03-28T10:43:03.522Z,3.90
2018-03-28T10:45:31.078Z,4.00
2018-03-28T10:47:58.637Z,4.00
2018-03-28T10:50:26.214Z,3.80
2018-03-28T10:52:53.753Z,4.00
2018-03-28T10:55:21.326Z,4.00
2018-03-28T10:57:48.882Z,3.90
2018-03-28T11:00:16.441Z,3.90
2018-03-28T11:02:44.022Z,4.10
2018-03-28T11:05:11.582Z,4.00
2018-03-28T11:07:39.926Z,4.00
2018-03-28T11:10:07.477Z,4.00
2018-03-28T11:12:35.031Z,4.00
2018-03-28T11:15:02.569Z,4.00
2018-03-28T11:17:30.120Z,4.10
2018-03-28T11:19:57.698Z,4.30
2018-03-28T11:22:25.256Z,4.30
2018-03-28T11:24:52.804Z,4.20
2018-03-28T11:27:20.464Z,4.40
2018-03-28T11:29:48.018Z,4.40
2018-03-28T11:32:15.586Z,4.30
2018-03-28T11:34:43.140Z,4.40
2018-03-28T11:37:10.700Z,4.50
2018-03-28T11:39:38.242Z,4.40
2018-03-28T11:42:05.797Z,4.40
2018-03-28T11:44:33.395Z,4.40
2018-03-28T11:47:01.047Z,4.40
2018-03-28T11:49:28.598Z,4.40
2018-03-28T11:51:56.150Z,4.60
2018-03-28T11:54:23.698Z,4.80
2018-03-28T11:56:51.275Z,4.70
2018-03-28T11:59:18.821Z,4.70
2018-03-28T12:01:47.141Z,4.70
2018-03-28T12:04:14.694Z,4.70
2018-03-28T12:06:42.249Z,4.80
2018-03-28T12:09:09.841Z,4.80
2018-03-28T12:11:37.390Z,4.80
2018-03-28T12:14:04.939Z,4.90
2018-03-28T12:16:32.502Z,4.70
2018-03-28T12:19:00.076Z,4.60
2018-03-28T12:21:27.653Z,4.80
2018-03-28T12:23:55.214Z,5.00
2018-03-28T12:26:23.530Z,5.30
2018-03-28T12:28:51.093Z,5.30
2018-03-28T12:31:18.651Z,5.50
2018-03-28T12:33:46.228Z,5.50
2018-03-28T12:36:13.821Z,5.40
2018-03-28T12:38:41.374Z,5.60
2018-03-28T12:41:08.932Z,5.80
2018-03-28T12:43:36.494Z,5.80
2018-03-28T12:46:04.073Z,5.70
2018-03-28T12:48:31.622Z,5.70
2018-03-28T12:50:59.939Z,5.70
2018-03-28T12:53:27.500Z,5.70
2018-03-28T12:55:55.826Z,5.90
2018-03-28T12:58:23.413Z,5.90
2018-03-28T13:00:50.974Z,5.90
2018-03-28T13:03:18.526Z,6.00
2018-03-28T13:05:46.082Z,6.30
2018-03-28T13:08:13.786Z,6.30
2018-03-28T13:10:41.376Z,6.40
2018-03-28T13:13:08.926Z,6.40
2018-03-28T13:15:36.477Z,6.40
2018-03-28T13:18:04.030Z,6.30
2018-03-28T13:20:31.578Z,6.20
2018-03-28T13:22:59.154Z,6.10
2018-03-28T13:25:26.698Z,6.00
2018-03-28T13:27:54.256Z,6.10
2018-03-28T13:30:21.805Z,6.20
2018-03-28T13:32:49.361Z,6.20
2018-03-28T13:35:16.946Z,6.00
2018-03-28T13:37:44.496Z,6.00
2018-03-28T13:40:12.046Z,6.30
2018-03-28T13:42:39.593Z,6.40
2018-03-28T13:45:07.152Z,6.50
2018-03-28T13:47:34.822Z,6.50
2018-03-28T13:50:02.386Z,6.40
2018-03-28T13:52:29.974Z,6.40
2018-03-28T13:54:57.521Z,6.40
2018-03-28T13:57:25.086Z,6.50
2018-03-28T13:59:52.674Z,6.50
2018-03-28T14:02:20.222Z,6.40
2018-03-28T14:04:47.776Z,6.30
2018-03-28T14:07:15.336Z,6.30
2018-03-28T14:09:42.913Z,6.40
2018-03-28T14:12:11.394Z,6.50
2018-03-28T14:14:38.966Z,6.40
2018-03-28T14:17:06.525Z,6.50
2018-03-28T14:19:34.861Z,6.80
2018-03-28T14:22:02.418Z,6.80
2018-03-28T14:24:30.084Z,6.90
2018-03-28T14:26:57.637Z,6.60
2018-03-28T14:29:25.249Z,6.60
2018-03-28T14:31:52.801Z,6.70
2018-03-28T14:34:21.127Z,6.80
2018-03-28T14:36:48.698Z,6.80
2018-03-28T14:39:17.025Z,6.80
2018-03-28T14:41:45.342Z,6.80
2018-03-28T14:44:12.890Z,6.80
2018-03-28T14:46:40.447Z,6.70
2018-03-28T14:49:08.037Z,6.60
2018-03-28T14:51:35.590Z,6.70
2018-03-28T14:54:03.138Z,6.30
2018-03-28T14:56:30.690Z,6.50
2018-03-28T14:58:58.247Z,6.70
2018-03-28T15:01:25.836Z,6.70
2018-03-28T15:03:53.389Z,6.50
2018-03-28T15:06:20.945Z,6.40
2018-03-28T15:08:48.530Z,6.10
2018-03-28T15:11:16.082Z,6.40
2018-03-28T15:13:43.639Z,6.30
2018-03-28T15:16:11.299Z,6.40
2018-03-28T15:18:38.862Z,6.00
2018-03-28T15:21:07.197Z,6.20
2018-03-28T15:23:34.758Z,6.20
2018-03-28T15:26:02.320Z,6.30
2018-03-28T15:28:29.878Z,6.20
2018-03-28T15:30:57.543Z,6.20
2018-03-28T15:33:25.101Z,6.30
2018-03-28T15:35:52.660Z,6.10
2018-03-28T15:38:20.214Z,6.20
2018-03-28T15:40:47.755Z,6.30
2018-03-28T15:43:16.134Z,6.20
2018-03-28T15:45:44.535Z,6.20
2018-03-28T15:48:12.078Z,6.20
2018-03-28T15:50:39.626Z,6.20
2018-03-28T15:53:07.315Z,6.10
2018-03-28T15:55:34.887Z,5.90
2018-03-28T15:58:02.434Z,6.00
2018-03-28T16:00:29.988Z,5.80
2018-03-28T16:02:57.558Z,5.50
2018-03-28T16:05:25.114Z,5.40
2018-03-28T16:07:52.696Z,5.40
2018-03-28T16:10:20.250Z,5.30
2018-03-28T16:12:47.819Z,5.30
2018-03-28T16:15:16.209Z,5.40
2018-03-28T16:17:44.521Z,5.20
2018-03-28T16:20:12.874Z,5.20
2018-03-28T16:22:40.426Z,5.20
2018-03-28T16:25:07.982Z,5.10
2018-03-28T16:27:35.541Z,4.90
2018-03-28T16:30:03.093Z,4.70
2018-03-28T16:32:30.667Z,5.10
2018-03-28T16:34:58.233Z,5.20
2018-03-28T16:37:26.556Z,5.10
2018-03-28T16:39:54.135Z,5.10
2018-03-28T16:42:21.686Z,5.20
2018-03-28T16:44:49.287Z,5.10
2018-03-28T16:47:17.602Z,5.40
2018-03-28T16:49:45.160Z,5.40
2018-03-28T16:52:12.711Z,5.40
2018-03-28T16:54:40.267Z,5.30
2018-03-28T16:57:07.846Z,5.60
2018-03-28T16:59:35.423Z,5.80
2018-03-28T17:02:03.042Z,5.80
2018-03-28T17:04:30.609Z,5.60
2018-03-28T17:06:58.175Z,5.80
2018-03-28T17:09:25.771Z,6.00
2018-03-28T17:11:53.321Z,6.20
2018-03-28T17:14:20.869Z,6.40
2018-03-28T17:16:48.427Z,6.50
2018-03-28T17:19:15.984Z,6.60
2018-03-28T17:21:43.562Z,6.60
2018-03-28T17:24:11.121Z,6.70
2018-03-28T17:26:38.765Z,6.70
2018-03-28T17:29:06.330Z,6.70
2018-03-28T17:31:33.890Z,6.70
2018-03-28T17:34:01.470Z,6.70
2018-03-28T17:36:29.034Z,6.70
2018-03-28T17:38:56.590Z,6.60
2018-03-28T17:41:24.151Z,6.60
2018-03-28T17:43:51.702Z,6.60
2018-03-28T17:46:19.289Z,6.70
2018-03-28T17:48:46.842Z,6.80
2018-03-28T17:51:14.401Z,6.70
2018-03-28T17:53:42.743Z,6.10
2018-03-28T17:56:10.302Z,6.10
2018-03-28T17:58:37.882Z,6.20
2018-03-28T18:01:05.438Z,6.40
2018-03-28T18:03:32.993Z,6.20
2018-03-28T18:06:00.556Z,6.30
2018-03-28T18:08:28.110Z,6.20
2018-03-28T18:10:55.858Z,6.30
2018-03-28T18:13:23.418Z,6.50
2018-03-28T18:15:50.974Z,5.50
2018-03-28T18:18:18.531Z,5.50
2018-03-28T18:20:46.088Z,5.30
2018-03-28T18:23:13.678Z,5.00
2018-03-28T18:25:41.242Z,5.10
2018-03-28T18:28:08.796Z,4.70
2018-03-28T18:30:36.345Z,4.40
2018-03-28T18:33:03.910Z,4.80
2018-03-28T18:35:31.509Z,5.20
2018-03-28T18:37:59.082Z,4.80
2018-03-28T18:40:26.650Z,4.10
2018-03-28T18:42:54.200Z,4.40
2018-03-28T18:45:21.770Z,4.40
2018-03-28T18:47:49.352Z,4.60
2018-03-28T18:50:16.918Z,4.90
2018-03-28T18:52:44.521Z,4.80
2018-03-28T18:55:12.071Z,5.10
2018-03-28T18:57:39.633Z,5.50
2018-03-28T19:00:07.223Z,5.60
2018-03-28T19:02:34.770Z,5.50
2018-03-28T19:05:03.100Z,4.80
2018-03-28T19:07:30.658Z,4.80
2018-03-28T19:09:58.217Z,4.90
2018-03-28T19:12:25.806Z,5.30
2018-03-28T19:14:53.366Z,5.50
2018-03-28T19:17:21.685Z,5.70
2018-03-28T19:19:49.441Z,5.70
2018-03-28T19:22:17.000Z,5.60
2018-03-28T19:24:44.626Z,5.60
2018-03-28T19:27:12.178Z,5.60
2018-03-28T19:29:39.730Z,5.60
2018-03-28T19:32:07.333Z,5.20
2018-03-28T19:34:34.898Z,5.50
2018-03-28T19:37:02.477Z,5.60
2018-03-28T19:39:30.026Z,5.60
2018-03-28T19:41:57.763Z,5.50
2018-03-28T19:44:25.305Z,5.30
2018-03-28T19:46:53.636Z,5.80
2018-03-28T19:49:21.213Z,5.80
2018-03-28T19:51:48.855Z,5.70
2018-03-28T19:54:16.446Z,5.80
2018-03-28T19:56:44.018Z,5.90
2018-03-28T19:59:11.567Z,6.00
2018-03-28T20:01:39.146Z,6.00
2018-03-28T20:04:06.702Z,6.00
2018-03-28T20:06:35.029Z,6.00
2018-03-28T20:09:02.577Z,6.00
2018-03-28T20:11:30.129Z,6.10
2018-03-28T20:13:57.747Z,6.10
2018-03-28T20:16:25.308Z,6.10
2018-03-28T20:18:52.861Z,6.10
2018-03-28T20:21:21.195Z,6.10
2018-03-28T20:23:48.758Z,6.10
2018-03-28T20:26:16.334Z,6.10
2018-03-28T20:28:43.894Z,6.10
2018-03-28T20:31:11.481Z,5.90
2018-03-28T20:33:39.839Z,6.00
2018-03-28T20:36:07.393Z,6.00
2018-03-28T20:38:34.977Z,6.00
2018-03-28T20:41:02.538Z,6.00
2018-03-28T20:43:30.093Z,6.00
2018-03-28T20:45:58.579Z,6.00
2018-03-28T20:48:26.125Z,6.00
2018-03-28T20:50:53.716Z,6.00
2018-03-28T20:53:21.279Z,6.10
2018-03-28T20:55:49.593Z,6.00
2018-03-28T20:58:17.148Z,6.00
2018-03-28T21:00:44.833Z,6.00
2018-03-28T21:03:12.313Z,6.00
2018-03-28T21:05:40.649Z,6.00
2018-03-28T21:08:08.213Z,6.00
2018-03-28T21:10:35.864Z,6.00
2018-03-28T21:13:03.431Z,6.00
2018-03-28T21:15:31.012Z,6.00
2018-03-28T21:17:58.577Z,6.00
2018-03-28T21:20:26.133Z,6.00
2018-03-28T21:22:53.692Z,6.00
2018-03-28T21:25:21.344Z,6.00
2018-03-28T21:27:49.095Z,6.00
2018-03-28T21:30:16.657Z,6.00
2018-03-28T21:32:44.228Z,6.00
2018-03-28T21:35:11.894Z,6.00
2018-03-28T21:37:40.760Z,6.00
2018-03-28T21:40:08.377Z,6.00
2018-03-28T21:42:35.910Z,5.90
2018-03-28T21:45:03.472Z,6.00
2018-03-28T21:47:31.030Z,5.90
2018-03-28T21:49:58.577Z,5.90
2018-03-28T21:52:26.125Z,5.90
2018-03-28T21:54:53.680Z,5.90
2018-03-28T21:57:21.236Z,5.90
2018-03-28T21:59:48.796Z,5.90
2018-03-28T22:02:16.356Z,5.90
2018-03-28T22:04:43.907Z,5.90
2018-03-28T22:07:11.473Z,5.90
2018-03-28T22:09:39.062Z,5.90
2018-03-28T22:12:06.648Z,5.90
2018-03-28T22:14:34.967Z,5.80
2018-03-28T22:17:02.526Z,5.80
2018-03-28T22:19:30.090Z,5.90
2018-03-28T22:21:57.689Z,5.80
2018-03-28T22:24:25.277Z,5.80
2018-03-28T22:26:52.836Z,5.80
2018-03-28T22:29:20.390Z,5.80
2018-03-28T22:31:48.712Z,5.70
2018-03-28T22:34:16.291Z,5.70
2018-03-28T22:36:43.870Z,5.70
2018-03-28T22:39:11.426Z,5.70
2018-03-28T22:41:38.983Z,5.70
2018-03-28T22:44:06.539Z,5.60
2018-03-28T22:46:34.093Z,5.60
2018-03-28T22:49:01.669Z,5.70
2018-03-28T22:51:29.230Z,5.60
2018-03-28T22:53:56.786Z,5.70
2018-03-28T22:56:25.123Z,5.60
2018-03-28T22:58:52.675Z,5.60
2018-03-28T23:01:20.252Z,5.60
2018-03-28T23:03:47.806Z,5.60
2018-03-28T23:06:15.366Z,5.60
2018-03-28T23:08:42.931Z,5.60
2018-03-28T23:11:10.485Z,5.60
2018-03-28T23:13:38.083Z,5.60
2018-03-28T23:16:05.643Z,5.60
2018-03-28T23:18:33.194Z,5.60
2018-03-28T23:21:00.757Z,5.60
2018-03-28T23:23:28.467Z,5.50
2018-03-28T23:25:56.347Z,5.50
2018-03-28T23:28:23.919Z,5.50
2018-03-28T23:30:51.471Z,5.50
2018-03-28T23:33:19.031Z,5.50
2018-03-28T23:35:46.592Z,5.40
2018-03-28T23:38:14.176Z,5.40
2018-03-28T23:40:41.734Z,5.40
2018-03-28T23:43:09.290Z,5.40
2018-03-28T23:45:36.846Z,5.40
2018-03-28T23:48:04.412Z,5.40
2018-03-28T23:50:32.035Z,5.40
2018-03-28T23:52:59.617Z,5.40
2018-03-28T23:55:27.171Z,5.40
2018-03-28T23:57:54.728Z,5.30
